createdAt,value
2023-04-21T00:00:19.443Z,6.36
2023-04-21T00:02:48.774Z,6.26
2023-04-21T00:05:22.600Z,6.20
2023-04-21T00:07:53.256Z,6.06
2023-04-21T00:10:21.803Z,6.06
2023-04-21T00:12:48.875Z,5.97
2023-04-21T00:15:15.695Z,5.95
2023-04-21T00:17:42.864Z,5.90
2023-04-21T00:20:10.847Z,5.83
2023-04-21T00:22:38.119Z,5.78
2023-04-21T00:25:05.725Z,5.73
2023-04-21T00:27:32.987Z,5.65
2023-04-21T00:30:01.148Z,5.56
2023-04-21T00:32:28.547Z,5.53
2023-04-21T00:34:58.151Z,5.47
2023-04-21T00:37:25.317Z,5.40
2023-04-21T00:39:52.335Z,5.32
2023-04-21T00:42:19.417Z,5.21
2023-04-21T00:44:46.685Z,5.17
2023-04-21T00:47:13.715Z,5.09
2023-04-21T00:49:41.162Z,5.00
2023-04-21T00:52:09.899Z,4.89
2023-04-21T00:54:37.712Z,4.80
2023-04-21T00:57:05.630Z,4.70
2023-04-21T00:59:33.232Z,4.67
2023-04-21T01:02:00.387Z,4.59
2023-04-21T01:04:28.859Z,4.50
2023-04-21T01:06:57.133Z,4.38
2023-04-21T01:09:24.569Z,4.29
2023-04-21T01:12:04.383Z,4.22
2023-04-21T01:14:33.912Z,4.12
2023-04-21T01:17:01.511Z,4.06
2023-04-21T01:19:32.906Z,4.01
2023-04-21T01:22:01.197Z,4.02
2023-04-21T01:24:42.237Z,4.05
2023-04-21T01:27:15.734Z,4.04
2023-04-21T01:29:44.766Z,4.00
2023-04-21T01:32:17.427Z,3.99
2023-04-21T01:34:46.515Z,3.95
2023-04-21T01:37:16.255Z,3.90
2023-04-21T01:39:46.079Z,3.86
2023-04-21T01:42:13.952Z,3.83
2023-04-21T01:44:42.298Z,3.82
2023-04-21T01:47:09.577Z,3.81
2023-04-21T01:49:36.565Z,3.75
2023-04-21T01:52:03.974Z,3.73
2023-04-21T01:54:31.287Z,3.70
2023-04-21T01:56:58.594Z,3.68
2023-04-21T01:59:25.707Z,3.69
2023-04-21T02:01:52.701Z,3.68
2023-04-21T02:04:20.480Z,3.70
2023-04-21T02:06:47.839Z,3.76
2023-04-21T02:09:14.873Z,3.80
2023-04-21T02:11:41.805Z,3.83
2023-04-21T02:14:09.283Z,3.91
2023-04-21T02:16:36.544Z,3.93
2023-04-21T02:19:04.150Z,3.88
2023-04-21T02:21:32.721Z,3.86
2023-04-21T02:24:02.229Z,3.82
2023-04-21T02:26:29.751Z,3.83
2023-04-21T02:28:56.984Z,3.81
2023-04-21T02:31:24.461Z,3.79
2023-04-21T02:33:52.358Z,3.79
2023-04-21T02:36:20.884Z,3.75
2023-04-21T02:38:50.592Z,3.74
2023-04-21T02:41:18.654Z,3.74
2023-04-21T02:43:46.293Z,3.72
2023-04-21T02:46:15.315Z,3.72
2023-04-21T02:48:43.463Z,3.73
2023-04-21T02:51:15.944Z,3.73
2023-04-21T02:53:45.443Z,3.77
2023-04-21T02:56:16.686Z,3.81
2023-04-21T02:58:44.320Z,3.86
2023-04-21T03:01:12.473Z,3.87
2023-04-21T03:03:40.235Z,3.89
2023-04-21T03:06:07.696Z,3.92
2023-04-21T03:08:35.232Z,3.98
2023-04-21T03:11:02.854Z,4.05
2023-04-21T03:13:30.585Z,4.10
2023-04-21T03:15:58.270Z,4.15
2023-04-21T03:18:25.937Z,4.21
2023-04-21T03:20:53.758Z,4.28
2023-04-21T03:23:24.100Z,4.33
2023-04-21T03:25:52.588Z,4.36
2023-04-21T03:28:20.442Z,4.44
2023-04-21T03:30:49.119Z,4.50
2023-04-21T03:33:17.526Z,4.55
2023-04-21T03:35:45.098Z,4.59
2023-04-21T03:38:12.517Z,4.64
2023-04-21T03:40:40.436Z,4.69
2023-04-21T03:43:07.954Z,4.74
2023-04-21T03:45:36.949Z,4.82
2023-04-21T03:48:04.527Z,4.88
2023-04-21T03:50:32.492Z,4.96
2023-04-21T03:53:00.175Z,5.05
2023-04-21T03:55:30.824Z,5.13
2023-04-21T03:57:58.152Z,5.22
2023-04-21T04:00:27.023Z,5.31
2023-04-21T04:02:54.837Z,5.39
2023-04-21T04:05:22.516Z,5.48
2023-04-21T04:07:50.533Z,5.57
2023-04-21T04:10:17.976Z,5.66
2023-04-21T04:12:45.451Z,5.74
2023-04-21T04:15:13.069Z,5.81
2023-04-21T04:17:40.343Z,5.89
2023-04-21T04:20:09.011Z,5.97
2023-04-21T04:22:36.348Z,6.01
2023-04-21T04:25:04.568Z,6.07
2023-04-21T04:27:32.885Z,6.15
2023-04-21T04:30:01.317Z,6.22
2023-04-21T04:32:29.574Z,6.29
2023-04-21T04:34:57.762Z,6.36
2023-04-21T04:37:27.209Z,6.45
2023-04-21T04:39:55.407Z,6.54
2023-04-21T04:42:22.207Z,6.65
2023-04-21T04:44:49.380Z,6.78
2023-04-21T04:47:18.224Z,6.92
2023-04-21T04:49:46.058Z,7.09
2023-04-21T04:52:15.565Z,7.26
2023-04-21T04:54:43.807Z,7.47
2023-04-21T04:57:11.480Z,7.71
2023-04-21T04:59:39.759Z,7.95
2023-04-21T05:02:08.377Z,8.21
2023-04-21T05:04:36.018Z,8.49
2023-04-21T05:07:06.822Z,8.84
2023-04-21T05:09:34.968Z,9.16
2023-04-21T05:12:02.940Z,9.45
2023-04-21T05:14:31.592Z,9.71
2023-04-21T05:17:00.370Z,10.03
2023-04-21T05:19:28.556Z,10.40
2023-04-21T05:22:05.967Z,10.69
2023-04-21T05:24:35.399Z,11.03
2023-04-21T05:27:04.888Z,11.37
2023-04-21T05:29:34.918Z,11.71
2023-04-21T05:32:02.479Z,12.05
2023-04-21T05:34:30.097Z,12.31
2023-04-21T05:36:58.146Z,12.66
2023-04-21T05:39:30.044Z,12.89
2023-04-21T05:42:10.106Z,13.12
2023-04-21T05:44:39.743Z,13.28
2023-04-21T05:47:08.438Z,13.64
2023-04-21T05:49:35.615Z,13.91
2023-04-21T05:52:04.581Z,14.09
2023-04-21T05:54:34.442Z,14.48
2023-04-21T05:57:02.286Z,15.27
2023-04-21T05:59:30.923Z,16.02
2023-04-21T06:02:01.634Z,16.55
2023-04-21T06:04:28.977Z,16.69
2023-04-21T06:06:56.406Z,16.84
2023-04-21T06:09:24.771Z,16.96
2023-04-21T06:11:54.445Z,17.38
2023-04-21T06:14:23.351Z,18.33
2023-04-21T06:16:50.574Z,19.23
2023-04-21T06:19:17.532Z,20.19
2023-04-21T06:21:58.483Z,21.52
2023-04-21T06:24:34.397Z,22.18
2023-04-21T06:27:02.395Z,22.30
2023-04-21T06:29:30.139Z,22.30
2023-04-21T06:31:58.728Z,22.31
2023-04-21T06:34:29.035Z,22.46
2023-04-21T06:37:00.951Z,22.18
2023-04-21T06:39:40.433Z,21.85
2023-04-21T06:42:10.780Z,22.01
2023-04-21T06:44:43.622Z,22.10
2023-04-21T06:47:11.782Z,21.91
2023-04-21T06:49:39.644Z,21.31
2023-04-21T06:52:07.446Z,21.17
2023-04-21T06:54:35.989Z,20.24
2023-04-21T06:57:06.386Z,20.23
2023-04-21T06:59:37.025Z,20.68
2023-04-21T07:02:06.804Z,21.61
2023-04-21T07:04:35.291Z,22.41
2023-04-21T07:07:04.273Z,23.37
2023-04-21T07:09:36.431Z,24.29
2023-04-21T07:12:06.613Z,25.15
2023-04-21T07:14:35.239Z,25.68
2023-04-21T07:17:03.666Z,26.20
2023-04-21T07:19:32.746Z,26.24
2023-04-21T07:22:01.828Z,26.66
2023-04-21T07:24:29.539Z,27.31
2023-04-21T07:26:57.248Z,27.82
2023-04-21T07:29:25.825Z,27.58
2023-04-21T07:31:56.546Z,27.56
2023-04-21T07:34:25.980Z,27.30
2023-04-21T07:36:58.452Z,27.14
2023-04-21T07:39:27.049Z,27.22
2023-04-21T07:41:56.390Z,27.78
2023-04-21T07:44:24.523Z,27.86
2023-04-21T07:46:52.046Z,28.07
2023-04-21T07:49:21.153Z,27.98
2023-04-21T07:51:52.429Z,27.56
2023-04-21T07:54:24.161Z,27.73
2023-04-21T07:56:51.615Z,28.02
2023-04-21T07:59:21.744Z,26.60
2023-04-21T08:01:56.577Z,26.60
2023-04-21T08:04:24.484Z,26.95
2023-04-21T08:06:53.108Z,27.00
2023-04-21T08:09:22.320Z,26.85
2023-04-21T08:11:50.070Z,26.57
2023-04-21T08:14:17.309Z,27.17
2023-04-21T08:16:44.954Z,26.34
2023-04-21T08:19:12.900Z,25.07
2023-04-21T08:21:40.857Z,25.89
2023-04-21T08:24:09.083Z,24.22
2023-04-21T08:26:36.996Z,24.72
2023-04-21T08:29:07.582Z,25.36
2023-04-21T08:31:35.337Z,24.97
2023-04-21T08:34:04.849Z,24.63
2023-04-21T08:36:32.955Z,24.99
2023-04-21T08:39:02.314Z,24.42
2023-04-21T08:41:31.748Z,23.43
2023-04-21T08:44:02.070Z,23.26
2023-04-21T08:46:32.605Z,23.60
2023-04-21T08:49:01.881Z,24.14
2023-04-21T08:51:31.287Z,22.68
2023-04-21T08:54:01.006Z,23.09
2023-04-21T08:56:33.874Z,22.19
2023-04-21T08:59:05.249Z,21.13
2023-04-21T09:01:34.495Z,20.76
2023-04-21T09:04:18.948Z,21.36
2023-04-21T09:06:47.030Z,21.87
2023-04-21T09:09:16.790Z,22.10
2023-04-21T09:11:46.323Z,22.35
2023-04-21T09:15:15.953Z,22.33
2023-04-21T09:18:08.673Z,21.40
2023-04-21T09:26:06.782Z,20.67
2023-04-21T09:28:34.828Z,20.23
2023-04-21T09:31:03.022Z,21.30
2023-04-21T09:33:42.655Z,22.06
2023-04-21T09:38:30.876Z,22.99
2023-04-21T09:41:03.490Z,23.07
2023-04-21T09:43:31.067Z,23.89
2023-04-21T09:45:59.651Z,24.76
2023-04-21T09:48:31.732Z,25.32
2023-04-21T09:53:31.925Z,23.59
2023-04-21T09:56:00.037Z,22.29
2023-04-21T10:00:58.092Z,19.40
2023-04-21T10:03:29.410Z,19.60
2023-04-21T10:05:57.756Z,19.47
2023-04-21T10:08:25.343Z,18.66
2023-04-21T10:10:54.794Z,18.68
2023-04-21T10:13:23.283Z,18.77
2023-04-21T10:16:08.593Z,18.52
2023-04-21T10:18:43.635Z,17.96
2023-04-21T10:21:21.964Z,17.89
2023-04-21T10:23:52.498Z,18.31
2023-04-21T10:26:23.032Z,19.15
2023-04-21T10:29:01.525Z,19.33
2023-04-21T10:31:45.256Z,19.24
2023-04-21T10:34:12.968Z,18.29
2023-04-21T10:36:47.369Z,17.89
2023-04-21T10:39:53.338Z,18.08
2023-04-21T10:42:24.929Z,17.34
2023-04-21T10:45:03.327Z,17.82
2023-04-21T10:47:37.468Z,18.11
2023-04-21T10:52:33.109Z,18.44
2023-04-21T10:55:14.158Z,18.70
2023-04-21T10:57:47.042Z,18.29
2023-04-21T11:00:26.378Z,18.17
2023-04-21T11:03:06.738Z,18.36
2023-04-21T11:05:40.555Z,18.53
2023-04-21T11:08:15.890Z,18.55
2023-04-21T11:10:53.243Z,18.21
2023-04-21T11:13:26.186Z,18.69
2023-04-21T11:16:02.890Z,18.22
2023-04-21T11:18:49.294Z,18.06
2023-04-21T11:21:20.931Z,17.78
2023-04-21T11:23:54.248Z,18.24
2023-04-21T11:26:39.558Z,18.90
2023-04-21T11:29:11.140Z,19.34
2023-04-21T11:31:42.151Z,19.72
2023-04-21T11:34:10.064Z,20.07
2023-04-21T11:36:43.672Z,20.35
2023-04-21T11:39:14.661Z,20.54
2023-04-21T11:41:52.694Z,20.76
2023-04-21T11:44:44.437Z,20.95
2023-04-21T11:47:21.162Z,21.34
2023-04-21T11:50:01.721Z,21.76
2023-04-21T11:52:35.832Z,22.11
2023-04-21T11:55:07.695Z,21.40
2023-04-21T11:57:37.182Z,21.03
2023-04-21T12:00:08.857Z,21.22
2023-04-21T12:02:37.041Z,21.99
2023-04-21T12:05:15.283Z,22.54
2023-04-21T12:07:50.124Z,22.79
2023-04-21T12:10:21.788Z,22.38
2023-04-21T12:15:23.714Z,21.62
2023-04-21T12:17:55.557Z,21.02
2023-04-21T12:20:29.059Z,20.46
2023-04-21T12:22:57.878Z,20.90
2023-04-21T12:25:26.449Z,21.00
2023-04-21T12:27:59.988Z,21.56
2023-04-21T12:32:56.698Z,22.91
2023-04-21T12:35:27.871Z,22.87
2023-04-21T12:37:56.980Z,23.04
2023-04-21T12:40:24.484Z,23.26
2023-04-21T12:42:55.120Z,23.61
2023-04-21T12:45:22.586Z,24.03
2023-04-21T12:47:50.298Z,24.17
2023-04-21T12:50:17.999Z,24.69
2023-04-21T12:52:46.583Z,24.01
2023-04-21T12:55:15.053Z,23.52
2023-04-21T12:57:43.819Z,22.81
2023-04-21T13:00:15.539Z,23.09
2023-04-21T13:02:44.592Z,24.05
2023-04-21T13:05:13.699Z,24.87
2023-04-21T13:07:42.759Z,24.46
2023-04-21T13:10:11.809Z,24.50
2023-04-21T13:12:39.731Z,24.57
2023-04-21T13:15:08.004Z,24.97
2023-04-21T13:17:35.501Z,25.50
2023-04-21T13:20:07.586Z,25.48
2023-04-21T13:22:37.441Z,25.96
2023-04-21T13:25:07.444Z,26.38
2023-04-21T13:27:41.407Z,26.83
2023-04-21T13:30:10.975Z,27.05
2023-04-21T13:32:39.908Z,26.76
2023-04-21T13:35:11.016Z,25.33
2023-04-21T13:37:41.306Z,25.54
2023-04-21T13:40:10.349Z,25.60
2023-04-21T13:42:41.832Z,25.56
2023-04-21T13:45:10.904Z,25.26
2023-04-21T13:47:42.067Z,25.11
2023-04-21T13:50:10.171Z,25.07
2023-04-21T13:52:37.671Z,23.99
2023-04-21T13:55:06.637Z,23.95
2023-04-21T13:57:35.550Z,23.92
2023-04-21T14:00:07.330Z,23.77
2023-04-21T14:02:36.129Z,23.72
2023-04-21T14:05:05.515Z,23.38
2023-04-21T14:07:33.645Z,23.34
2023-04-21T14:10:02.356Z,23.02
2023-04-21T14:12:31.985Z,22.73
2023-04-21T14:15:00.958Z,22.72
2023-04-21T14:17:30.854Z,22.68
2023-04-21T14:19:58.888Z,22.60
2023-04-21T14:22:29.174Z,22.41
2023-04-21T14:24:57.714Z,22.53
2023-04-21T14:27:24.865Z,22.68
2023-04-21T14:29:53.166Z,22.65
2023-04-21T14:32:22.085Z,22.74
2023-04-21T14:34:53.583Z,22.74
2023-04-21T14:37:21.834Z,22.64
2023-04-21T14:39:49.114Z,22.60
2023-04-21T14:42:17.457Z,22.58
2023-04-21T14:44:46.443Z,22.53
2023-04-21T14:47:16.913Z,22.47
2023-04-21T14:49:44.603Z,22.36
2023-04-21T14:52:13.167Z,22.15
2023-04-21T14:54:40.533Z,22.00
2023-04-21T14:57:19.863Z,21.84
2023-04-21T14:59:50.054Z,21.66
2023-04-21T15:02:18.188Z,21.52
2023-04-21T15:04:46.130Z,21.42
2023-04-21T15:07:13.722Z,21.27
2023-04-21T15:09:46.135Z,21.12
2023-04-21T15:12:13.907Z,20.89
2023-04-21T15:14:41.634Z,20.72
2023-04-21T15:17:11.704Z,20.56
2023-04-21T15:19:40.371Z,20.45
2023-04-21T15:22:08.057Z,20.37
2023-04-21T15:24:37.010Z,20.31
2023-04-21T15:27:04.932Z,20.26
2023-04-21T15:29:33.936Z,20.18
2023-04-21T15:32:02.289Z,20.09
2023-04-21T15:34:29.792Z,19.97
2023-04-21T15:36:57.777Z,19.83
2023-04-21T15:39:25.100Z,19.69
2023-04-21T15:41:53.872Z,19.56
2023-04-21T15:44:21.764Z,19.41
2023-04-21T15:46:49.336Z,19.24
2023-04-21T15:49:17.099Z,19.02
2023-04-21T15:51:45.227Z,18.85
2023-04-21T15:54:14.200Z,18.69
2023-04-21T15:56:42.526Z,18.52
2023-04-21T15:59:11.813Z,18.34
2023-04-21T16:01:40.130Z,18.15
2023-04-21T16:04:08.606Z,17.72
2023-04-21T16:06:36.764Z,17.54
2023-04-21T16:09:04.815Z,17.28
2023-04-21T16:11:33.688Z,17.08
2023-04-21T16:14:01.040Z,16.70
2023-04-21T16:16:28.263Z,16.41
2023-04-21T16:21:40.987Z,15.31
2023-04-21T16:24:09.151Z,14.00
2023-04-21T16:26:36.685Z,12.57
2023-04-21T16:29:04.422Z,11.67
2023-04-21T16:31:31.782Z,11.38
2023-04-21T16:34:00.438Z,11.07
2023-04-21T16:36:34.878Z,10.79
2023-04-21T16:39:02.623Z,10.74
2023-04-21T16:41:30.694Z,10.75
2023-04-21T16:43:58.449Z,10.65
2023-04-21T16:46:26.066Z,10.65
2023-04-21T16:48:53.546Z,10.64
2023-04-21T16:51:20.713Z,10.62
2023-04-21T16:53:48.284Z,10.60
2023-04-21T16:56:15.585Z,10.58
2023-04-21T16:58:42.764Z,10.56
2023-04-21T17:01:09.569Z,10.53
2023-04-21T17:03:37.029Z,10.50
2023-04-21T17:06:09.833Z,10.50
2023-04-21T17:08:37.572Z,10.49
2023-04-21T17:11:05.715Z,10.39
2023-04-21T17:13:34.978Z,10.36
2023-04-21T17:16:02.718Z,10.34
2023-04-21T17:18:30.147Z,10.39
2023-04-21T17:20:57.746Z,10.43
2023-04-21T17:23:24.994Z,10.46
2023-04-21T17:25:52.405Z,10.46
2023-04-21T17:28:19.422Z,10.46
2023-04-21T17:30:46.966Z,10.43
2023-04-21T17:33:17.228Z,10.41
2023-04-21T17:36:00.023Z,10.38
2023-04-21T17:38:30.664Z,10.34
2023-04-21T17:40:59.878Z,10.31
2023-04-21T17:43:27.537Z,10.28
2023-04-21T17:45:55.139Z,10.25
2023-04-21T17:48:22.228Z,10.21
2023-04-21T17:50:49.437Z,10.17
2023-04-21T17:53:18.028Z,10.18
2023-04-21T17:55:45.609Z,10.17
2023-04-21T17:58:13.241Z,10.17
2023-04-21T18:00:40.153Z,10.16
2023-04-21T18:03:07.457Z,10.12
2023-04-21T18:05:34.931Z,10.17
2023-04-21T18:08:02.245Z,10.15
2023-04-21T18:10:30.221Z,10.16
2023-04-21T18:12:58.092Z,10.15
2023-04-21T18:15:25.956Z,10.13
2023-04-21T18:17:53.543Z,10.10
2023-04-21T18:20:21.063Z,10.09
2023-04-21T18:22:50.750Z,10.01
2023-04-21T18:25:30.620Z,9.99
2023-04-21T18:28:07.345Z,9.95
2023-04-21T18:30:34.741Z,9.89
2023-04-21T18:33:04.815Z,9.84
2023-04-21T18:35:34.670Z,9.80
2023-04-21T18:38:02.143Z,9.75
2023-04-21T18:40:29.891Z,9.71
2023-04-21T18:42:57.471Z,9.66
2023-04-21T18:45:24.844Z,9.60
2023-04-21T18:47:52.181Z,9.53
2023-04-21T18:50:19.769Z,9.46
2023-04-21T18:52:47.624Z,9.40
2023-04-21T18:55:15.992Z,9.31
2023-04-21T18:57:42.879Z,9.24
2023-04-21T19:00:11.098Z,9.20
2023-04-21T19:02:39.964Z,9.13
2023-04-21T19:05:07.707Z,9.05
2023-04-21T19:07:35.910Z,9.01
2023-04-21T19:10:03.190Z,8.98
2023-04-21T19:12:30.628Z,8.95
2023-04-21T19:14:58.138Z,8.96
2023-04-21T19:17:25.107Z,8.97
2023-04-21T19:19:52.636Z,8.99
2023-04-21T19:22:20.313Z,9.02
2023-04-21T19:24:47.911Z,9.05
2023-04-21T19:27:15.627Z,9.05
2023-04-21T19:29:42.857Z,9.06
2023-04-21T19:32:10.199Z,9.04
2023-04-21T19:34:37.949Z,9.03
2023-04-21T19:37:05.489Z,9.02
2023-04-21T19:39:33.444Z,9.02
2023-04-21T19:42:01.253Z,9.01
2023-04-21T19:44:28.650Z,9.00
2023-04-21T19:46:56.615Z,8.99
2023-04-21T19:49:23.830Z,8.98
2023-04-21T19:51:51.198Z,9.00
2023-04-21T19:54:18.713Z,9.00
2023-04-21T19:56:45.996Z,9.03
2023-04-21T19:59:13.468Z,9.06
2023-04-21T20:01:40.833Z,9.09
2023-04-21T20:04:10.916Z,9.11
2023-04-21T20:06:39.207Z,9.15
2023-04-21T20:09:06.712Z,9.18
2023-04-21T20:11:34.710Z,9.19
2023-04-21T20:14:02.351Z,9.22
2023-04-21T20:16:30.050Z,9.22
2023-04-21T20:18:57.071Z,9.21
2023-04-21T20:21:24.815Z,9.21
2023-04-21T20:23:51.981Z,9.20
2023-04-21T20:26:19.323Z,9.20
2023-04-21T20:28:46.159Z,9.21
2023-04-21T20:31:13.747Z,9.19
2023-04-21T20:33:40.896Z,9.20
2023-04-21T20:36:08.702Z,9.17
2023-04-21T20:38:35.773Z,9.13
2023-04-21T20:41:03.614Z,9.10
2023-04-21T20:43:34.230Z,9.08
2023-04-21T20:46:02.081Z,8.99
2023-04-21T20:48:28.871Z,9.01
2023-04-21T20:50:56.219Z,8.97
2023-04-21T20:53:23.912Z,8.93
2023-04-21T20:55:50.925Z,8.89
2023-04-21T20:58:18.186Z,8.84
2023-04-21T21:00:45.825Z,8.83
2023-04-21T21:03:13.926Z,8.79
2023-04-21T21:05:41.540Z,8.75
2023-04-21T21:08:09.581Z,8.76
2023-04-21T21:10:37.278Z,8.74
2023-04-21T21:13:04.610Z,8.77
2023-04-21T21:15:31.910Z,8.70
2023-04-21T21:17:59.116Z,8.68
2023-04-21T21:22:53.068Z,8.51
2023-04-21T21:25:20.232Z,8.45
2023-04-21T21:27:47.437Z,8.42
2023-04-21T21:30:14.753Z,8.32
2023-04-21T21:32:41.757Z,8.22
2023-04-21T21:35:10.481Z,8.17
2023-04-21T21:37:38.259Z,8.13
2023-04-21T21:40:07.254Z,8.06
2023-04-21T21:42:34.836Z,7.93
2023-04-21T21:45:02.520Z,7.92
2023-04-21T21:47:29.662Z,7.91
2023-04-21T21:49:59.056Z,7.84
2023-04-21T21:52:28.872Z,7.84
2023-04-21T21:54:57.069Z,7.79
2023-04-21T21:57:24.859Z,7.80
2023-04-21T21:59:51.962Z,7.77
2023-04-21T22:02:19.309Z,7.73
2023-04-21T22:04:47.771Z,7.69
2023-04-21T22:07:15.484Z,7.63
2023-04-21T22:09:42.498Z,7.60
2023-04-21T22:12:10.071Z,7.61
2023-04-21T22:14:37.096Z,7.58
2023-04-21T22:17:04.517Z,7.51
2023-04-21T22:19:31.913Z,7.47
2023-04-21T22:21:59.412Z,7.41
2023-04-21T22:24:26.640Z,7.32
2023-04-21T22:26:54.078Z,7.21
2023-04-21T22:29:21.564Z,7.14
2023-04-21T22:31:48.862Z,7.07
2023-04-21T22:34:16.895Z,7.03
2023-04-21T22:36:44.082Z,6.96
2023-04-21T22:39:11.765Z,6.89
2023-04-21T22:41:38.952Z,6.85
2023-04-21T22:44:06.095Z,6.76
2023-04-21T22:46:33.875Z,6.71
2023-04-21T22:49:03.515Z,6.67
2023-04-21T22:51:32.603Z,6.61
2023-04-21T22:54:01.089Z,6.58
2023-04-21T22:56:29.967Z,6.53
2023-04-21T22:58:57.607Z,6.52
2023-04-21T23:01:24.673Z,6.52
2023-04-21T23:03:52.270Z,6.50
2023-04-21T23:06:19.531Z,6.49
2023-04-21T23:08:47.270Z,6.48
2023-04-21T23:11:14.566Z,6.45
2023-04-21T23:13:41.733Z,6.43
2023-04-21T23:16:08.915Z,6.41
2023-04-21T23:18:36.529Z,6.39
2023-04-21T23:21:03.653Z,6.32
2023-04-21T23:23:30.849Z,6.29
2023-04-21T23:25:57.737Z,6.24
2023-04-21T23:28:24.548Z,6.21
2023-04-21T23:30:51.674Z,6.13
2023-04-21T23:33:19.043Z,6.08
2023-04-21T23:35:46.156Z,6.01
2023-04-21T23:38:13.262Z,5.94
2023-04-21T23:40:40.393Z,5.86
2023-04-21T23:43:07.667Z,5.77
2023-04-21T23:45:34.969Z,5.70
2023-04-21T23:48:02.376Z,5.62
2023-04-21T23:50:29.937Z,5.53
2023-04-21T23:52:57.246Z,5.46
2023-04-21T23:55:24.418Z,5.37
2023-04-21T23:57:51.507Z,5.32
